Flight Track Log - Related Links

Times and Time Zones

All times are in EDT time to prevent confusion due to time zone crossing. See the N2317S flight status page for this flight to view local times or setup timezone preferences in your user account.

Time Position Orientation Groundspeed Altitude Reporting Facility
EDT Latitude Longitude Course Direction KTS MPH feet Rate Location/Type
Tue 10:04:19 AM 42.1481 -73.1569 360° North 181 208 11,500  Level Boston Center
Tue 10:05:19 AM 42.1981 -73.1575 360° North 181 208 11,500  Level Boston Center
Tue 10:06:19 AM 42.2503 -73.1553 North 181 208 11,500  Level Boston Center
Tue 10:07:19 AM 42.3022 -73.1558 360° North 176 203 11,500  Level Boston Center
Tue 10:08:31 AM 42.3503 -73.1564 360° North 176 203 11,500  Level Boston Center
Tue 10:09:31 AM 42.4106 -73.1572 359° North 176 203 11,500  Level Boston Center
Tue 10:10:31 AM 42.4564 -73.1578 359° North 176 203 11,500  Level Boston Center
Tue 10:11:31 AM 42.5128 -73.1556 North 176 203 11,500  Level Boston Center
Tue 10:12:31 AM 42.5608 -73.1561 360° North 182 209 11,500  Level Boston Center
Tue 10:13:43 AM 42.6169 -73.1567 360° North 177 204 11,500  Level Boston Center
Tue 10:14:43 AM 42.6775 -73.1544 North 177 204 11,500  Level Boston Center
Tue 10:15:43 AM 42.7253 -73.1550 360° North 177 204 11,500  Level Boston Center
Tue 10:16:43 AM 42.7836 -73.1531 North 177 204 11,500  Level Boston Center
Tue 10:17:43 AM 42.8294 -73.1536 359° North 177 204 11,500  Level Boston Center
Tue 10:18:43 AM 42.8858 -73.1542 360° North 177 204 11,500  Level Boston Center
Tue 10:19:43 AM 42.9294 -73.1603 354° North 177 204 11,500  Level Boston Center
Tue 10:20:43 AM 42.9878 -73.1694 353° North 182 209 11,500  Level Boston Center
Tue 10:21:43 AM 43.0336 -73.1758 354° North 182 209 11,500  Level Boston Center
Tue 10:22:43 AM 43.0900 -73.1850 353° North 182 209 11,500  Level Boston Center
Tue 10:23:43 AM 43.1336 -73.1911 354° North 182 209 11,500  Level Boston Center
Tue 10:24:43 AM 43.1878 -73.1975 355° North 182 209 11,500  Level Boston Center
Tue 10:25:43 AM 43.2336 -73.2067 352° North 182 209 11,500  Level Boston Center
Tue 10:26:55 AM 43.3003 -73.2161 354° North 182 209 11,500  Level Boston Center
Tue 10:27:55 AM 43.3503 -73.2194 357° North 182 209 11,500  Level Boston Center
Tue 10:28:55 AM 43.4022 -73.2231 357° North 182 209 11,500  Level Boston Center
Tue 10:29:55 AM 43.4522 -73.2294 355° North 182 209 11,500  Level Boston Center
Tue 10:30:55 AM 43.5042 -73.2331 357° North 182 209 11,500  Level Boston Center
Tue 10:31:55 AM 43.5564 -73.2281 North 182 209 11,500  Level Boston Center
Tue 10:32:55 AM 43.6106 -73.2200 North 182 209 11,500  Level Boston Center
Tue 10:33:55 AM 43.6628 -73.2178 North 182 209 11,500 -50 Level Boston Center
Tue 10:34:55 AM 43.7108 -73.2156 North 187 215 11,400 -50 Descending Boston Center
Tue 10:35:55 AM 43.7650 -73.2133 North 187 215 11,400 -150 Level Boston Center
Tue 10:36:55 AM 43.8192 -73.2083 North 192 221 11,100 -400 Descending Boston Center
Tue 10:37:55 AM 43.8775 -73.2119 357° North 192 221 10,600 -550 Descending Boston Center
Tue 10:38:55 AM 43.9294 -73.2156 357° North 192 221 10,000 -650 Descending Boston Center
Tue 10:39:55 AM 43.9836 -73.2250 353° North 192 221 9,300 -650 Descending Boston Center
Tue 10:40:55 AM 44.0336 -73.2314 355° North 192 221 8,700 -600 Descending Boston Center
Tue 10:41:55 AM 44.0836 -73.2436 350° North 182 209 8,100 -600 Descending Boston Center
Tue 10:42:55 AM 44.1333 -73.2528 352° North 182 209 7,500 -600 Descending Boston Center
Tue 10:43:55 AM 44.1814 -73.2622 352° North 177 204 6,900 -600 Descending Boston Center
Tue 10:44:55 AM 44.2272 -73.2628 360° North 177 204 6,300 -500 Descending Boston Center
Tue 10:45:55 AM 44.2750 -73.2606 North 177 204 5,900 -400 Descending Boston Center
Tue 10:46:55 AM 44.3167 -73.2611 359° North 160 184 5,500 -500 Descending Boston Center
Tue 10:47:55 AM 44.3625 -73.2589 North 160 184 4,900 -650 Descending Boston Center
Tue 10:48:55 AM 44.4003 -73.2450 15° North 155 178 4,200 -700 Descending Boston Center
Tue 10:50:00 AM 44.4307 -73.2014 46° Northeast  Level FlightAware Approximate
Tue 10:57:00 AM 44.4667 -73.1500 North  Level FlightAware Approximate
Tue 10:58:00 AM 44.4719 -73.1533 North  Level Estimated
Tue 10:59:00 AM 44.4667 -73.1500 North  Level FlightAware Approximate
Tue 11:00:00 AM 44.4719 -73.1533 North  Level Estimated
Tue 11:01:00 AM 44.4667 -73.1500 North  Level FlightAware Approximate
Tue 11:02:00 AM 44.4719 -73.1533 North  Level Estimated
Tue 11:03:00 AM 44.4667 -73.1500 North  Level FlightAware Approximate
Tue 11:04:00 AM 44.4719 -73.1533 North  Level Estimated
Tue 11:05:00 AM 44.4667 -73.1500 North  Level FlightAware Approximate
Tue 11:06:00 AM 44.4719 -73.1533 North  Level Estimated
Tue 11:07:00 AM 44.4667 -73.1500 North  Level FlightAware Approximate
Tue 11:08:00 AM 44.4719 -73.1533 North  Level Estimated
Tue 11:09:00 AM 44.4667 -73.1500 North  Level FlightAware Approximate

Login

Don't have an account? Register now (free) for customized features, flight alerts, and more!